Time;durP1;ratioP1;P1;durP2;ratioP2;P2;SDS_P1;SDS_P2;PMS_P1;PMS_P2;Temp;Humidity;BMP_temperature;BMP_pressure;BME280_temperature;BME280_humidity;BME280_pressure;Samples;Min_cycle;Max_cycle;Signal;HPM_P1;HPM_P2
2023/11/13 00:00:13;;;;;;;0.50;0.50;;;;;;;10.49;85.17;96789.16;5066306;28;20067;-67
2023/11/13 00:02:40;;;;;;;0.50;0.50;;;;;;;10.52;83.99;96788.41;5065395;28;20163;-66
2023/11/13 00:05:07;;;;;;;0.50;0.50;;;;;;;10.58;82.57;96797.19;5066965;28;20091;-67
2023/11/13 00:07:34;;;;;;;0.40;0.40;;;;;;;10.54;82.71;96802.66;5066893;28;20084;-67
2023/11/13 00:10:01;;;;;;;0.50;0.50;;;;;;;10.48;83.59;96806.94;5066736;28;20054;-67
2023/11/13 00:12:28;;;;;;;0.50;0.50;;;;;;;10.35;84.40;96819.41;5066427;28;20508;-68
2023/11/13 00:14:55;;;;;;;0.40;0.40;;;;;;;10.42;84.39;96833.38;5065080;28;20049;-67
2023/11/13 00:17:21;;;;;;;0.43;0.43;;;;;;;10.40;84.50;96841.25;5065609;28;20051;-67
2023/11/13 00:19:48;;;;;;;0.40;0.40;;;;;;;10.49;84.48;96839.00;5065051;28;20063;-67
2023/11/13 00:22:15;;;;;;;0.50;0.50;;;;;;;10.49;84.97;96836.25;5066829;28;20409;-68
2023/11/13 00:24:42;;;;;;;0.45;0.45;;;;;;;10.58;84.88;96835.94;5066055;28;20128;-66
2023/11/13 00:27:09;;;;;;;0.50;0.50;;;;;;;10.62;85.68;96836.81;5066470;28;20048;-67
2023/11/13 00:29:35;;;;;;;0.50;0.50;;;;;;;10.63;86.39;96844.75;5066365;28;20056;-67
2023/11/13 00:32:02;;;;;;;0.45;0.45;;;;;;;10.66;86.55;96844.00;5065839;28;20056;-68
2023/11/13 00:34:30;;;;;;;0.40;0.40;;;;;;;10.73;86.57;96838.53;5066359;28;20044;-65
2023/11/13 00:36:56;;;;;;;0.50;0.50;;;;;;;10.83;86.05;96830.75;5064038;28;20056;-66
2023/11/13 00:39:24;;;;;;;0.50;0.50;;;;;;;10.80;85.58;96837.00;5064349;28;20155;-65
2023/11/13 00:41:50;;;;;;;0.43;0.43;;;;;;;10.39;85.13;96759.34;5065762;28;20067;-65
2023/11/13 00:44:17;;;;;;;0.50;0.50;;;;;;;10.83;85.07;96822.44;5064230;28;20056;-66
2023/11/13 00:46:44;;;;;;;0.50;0.50;;;;;;;10.80;84.48;96823.16;5065761;28;20049;-67
2023/11/13 00:49:11;;;;;;;0.50;0.50;;;;;;;10.47;83.92;96785.97;5065547;28;20054;-66
2023/11/13 00:51:38;;;;;;;0.40;0.40;;;;;;;10.83;83.89;96836.28;5065387;28;20562;-66
2023/11/13 00:54:05;;;;;;;0.50;0.50;;;;;;;10.33;83.55;96749.78;5064063;28;20559;-66
2023/11/13 00:56:32;;;;;;;0.50;0.50;;;;;;;10.79;83.84;96824.34;5065580;28;20135;-65
2023/11/13 00:59:00;;;;;;;0.50;0.50;;;;;;;10.90;82.47;96830.81;5064969;28;20052;-66
2023/11/13 01:01:27;;;;;;;0.45;0.45;;;;;;;10.80;82.07;96812.06;5064145;28;20136;-66
2023/11/13 01:03:54;;;;;;;0.47;0.47;;;;;;;10.51;81.77;96763.88;5065490;28;20408;-65
2023/11/13 01:06:22;;;;;;;0.40;0.40;;;;;;;10.87;81.34;96813.00;5063925;28;20131;-66
2023/11/13 01:08:49;;;;;;;0.50;0.50;;;;;;;10.87;81.37;96803.88;5065020;28;20056;-66
2023/11/13 01:11:16;;;;;;;0.47;0.47;;;;;;;10.80;81.74;96807.34;5065623;28;20056;-66
2023/11/13 01:13:43;;;;;;;0.50;0.50;;;;;;;10.88;80.70;96794.38;5064879;28;20048;-68
2023/11/13 01:16:09;;;;;;;0.40;0.40;;;;;;;10.85;80.48;96803.44;5065589;28;20059;-65
2023/11/13 01:18:36;;;;;;;0.50;0.50;;;;;;;10.77;79.97;96804.53;5065622;28;20048;-66
2023/11/13 01:21:03;;;;;;;0.50;0.50;;;;;;;10.13;80.22;96742.78;5065294;28;20048;-66
2023/11/13 01:23:30;;;;;;;0.50;0.50;;;;;;;10.52;80.34;96816.09;5064184;28;20071;-65
2023/11/13 01:25:57;;;;;;;0.50;0.50;;;;;;;10.59;79.80;96827.25;5064937;28;20052;-65
2023/11/13 01:28:24;;;;;;;0.40;0.40;;;;;;;10.57;79.40;96810.22;5064823;28;20079;-65
2023/11/13 01:30:50;;;;;;;0.50;0.50;;;;;;;10.66;79.61;96807.97;5065303;28;20052;-66
2023/11/13 01:33:18;;;;;;;0.50;0.50;;;;;;;10.43;79.01;96779.56;5063277;28;20052;-66
2023/11/13 01:35:45;;;;;;;0.40;0.40;;;;;;;10.77;78.59;96805.34;5064682;28;20150;-66
2023/11/13 01:38:12;;;;;;;0.50;0.50;;;;;;;10.85;78.36;96800.66;5064974;28;20052;-66
2023/11/13 01:40:42;;;;;;;0.50;0.50;;;;;;;10.94;78.50;96801.19;5064780;28;20056;-66
2023/11/13 01:43:20;;;;;;;0.40;0.40;;;;;;;10.93;78.81;96805.94;5064578;28;20540;-68
2023/11/13 01:45:55;;;;;;;0.50;0.50;;;;;;;10.87;78.53;96806.63;5064630;28;20052;-66
2023/11/13 01:48:23;;;;;;;0.50;0.50;;;;;;;10.90;78.31;96803.09;5063177;28;20059;-66
2023/11/13 01:50:51;;;;;;;0.40;0.40;;;;;;;10.79;79.16;96791.91;5063977;28;20051;-65
2023/11/13 01:53:22;;;;;;;0.50;0.50;;;;;;;10.83;79.37;96797.50;5064028;28;20131;-67
2023/11/13 01:55:50;;;;;;;0.50;0.50;;;;;;;10.79;79.59;96785.56;5064448;28;20062;-66
2023/11/13 01:58:17;;;;;;;0.50;0.50;;;;;;;10.85;81.59;96790.41;5063116;28;20048;-65
2023/11/13 02:00:46;;;;;;;0.50;0.50;;;;;;;10.86;82.51;96796.75;5062461;28;20056;-66
2023/11/13 02:03:14;;;;;;;0.50;0.50;;;;;;;10.72;84.99;96804.88;5063897;28;20549;-66
2023/11/13 02:05:44;;;;;;;0.40;0.40;;;;;;;10.30;86.15;96747.78;5064211;28;20135;-66
2023/11/13 02:08:11;;;;;;;0.50;0.50;;;;;;;10.52;87.06;96776.53;5063021;28;20080;-66
2023/11/13 02:10:39;;;;;;;0.50;0.50;;;;;;;10.56;87.37;96792.00;5064316;28;20041;-65
2023/11/13 02:13:09;;;;;;;0.47;0.47;;;;;;;10.63;87.60;96796.84;5064238;28;20045;-65
2023/11/13 02:15:37;;;;;;;0.40;0.40;;;;;;;10.70;87.13;96800.50;5062671;28;20048;-66
2023/11/13 02:18:04;;;;;;;0.50;0.50;;;;;;;10.75;87.00;96801.34;5063991;28;20055;-66
2023/11/13 02:20:32;;;;;;;0.50;0.50;;;;;;;10.79;87.52;96799.41;5063808;28;20132;-66
2023/11/13 02:22:59;;;;;;;0.40;0.40;;;;;;;10.59;86.67;96774.66;5062797;28;20477;-65
2023/11/13 02:25:27;;;;;;;0.40;0.40;;;;;;;10.65;86.14;96770.34;5062504;28;20048;-65
2023/11/13 02:27:57;;;;;;;0.50;0.50;;;;;;;10.88;86.34;96805.44;5063681;28;20083;-66
2023/11/13 02:30:24;;;;;;;0.50;0.50;;;;;;;10.56;86.14;96746.91;5064032;28;20534;-66
2023/11/13 02:32:51;;;;;;;0.40;0.40;;;;;;;10.98;85.93;96816.69;5064216;28;20064;-67
2023/11/13 02:35:18;;;;;;;0.50;0.50;;;;;;;11.07;85.58;96802.50;5063826;28;20121;-67
2023/11/13 02:37:45;;;;;;;0.50;0.50;;;;;;;11.11;85.03;96798.59;5062751;28;20055;-66
2023/11/13 02:40:12;;;;;;;0.50;0.50;;;;;;;11.12;84.78;96794.66;5062507;28;20049;-66
2023/11/13 02:42:41;;;;;;;0.50;0.50;;;;;;;11.15;84.04;96793.09;5063773;28;20056;-67
2023/11/13 02:45:09;;;;;;;0.50;0.50;;;;;;;11.12;83.16;96805.75;5079007;28;20515;-66
2023/11/13 02:47:36;;;;;;;0.50;0.50;;;;;;;10.81;83.42;96761.06;5062561;28;20052;-66
2023/11/13 02:50:04;;;;;;;0.50;0.50;;;;;;;11.10;83.33;96785.91;5062413;28;20052;-66
2023/11/13 02:52:31;;;;;;;0.50;0.50;;;;;;;11.22;83.25;96798.72;5063709;28;20049;-67
2023/11/13 02:54:58;;;;;;;0.60;0.60;;;;;;;11.19;83.55;96805.03;5063804;28;20131;-66
2023/11/13 02:57:25;;;;;;;0.50;0.50;;;;;;;11.17;83.40;96808.19;5063610;28;20178;-66
2023/11/13 02:59:51;;;;;;;0.52;0.52;;;;;;;11.27;83.44;96798.38;5062303;28;20052;-66
2023/11/13 03:02:18;;;;;;;0.50;0.50;;;;;;;11.27;83.52;96795.63;5063817;28;20602;-66
2023/11/13 03:04:45;;;;;;;0.50;0.50;;;;;;;11.33;82.98;96810.72;5062383;28;20530;-66
2023/11/13 03:07:12;;;;;;;0.50;0.50;;;;;;;11.19;83.53;96771.75;5063511;28;20529;-66
2023/11/13 03:09:39;;;;;;;0.50;0.50;;;;;;;11.30;83.76;96789.31;5063633;28;20048;-67
2023/11/13 03:12:06;;;;;;;0.50;0.50;;;;;;;11.28;83.62;96788.88;5063231;28;20049;-65
2023/11/13 03:14:33;;;;;;;0.60;0.60;;;;;;;11.25;82.67;96775.78;5062177;28;20052;-66
2023/11/13 03:16:59;;;;;;;0.50;0.50;;;;;;;11.26;82.25;96782.91;5062008;28;20412;-66
2023/11/13 03:19:26;;;;;;;0.50;0.50;;;;;;;11.17;82.65;96769.38;5063243;28;20662;-66
2023/11/13 03:21:53;;;;;;;0.45;0.45;;;;;;;11.05;82.88;96779.94;5062224;28;20068;-66
2023/11/13 03:24:19;;;;;;;0.50;0.50;;;;;;;10.76;82.80;96737.25;5063593;28;20064;-66
2023/11/13 03:26:46;;;;;;;0.50;0.50;;;;;;;10.94;82.04;96770.72;5063145;28;20531;-66
2023/11/13 03:29:13;;;;;;;0.50;0.50;;;;;;;10.18;82.52;96678.81;5063428;28;20045;-66
2023/11/13 03:31:40;;;;;;;0.50;0.50;;;;;;;10.71;83.48;96781.91;5061783;28;20373;-66
2023/11/13 03:34:06;;;;;;;0.50;0.50;;;;;;;10.32;83.79;96742.66;5063437;28;20638;-66
2023/11/13 03:36:33;;;;;;;0.50;0.50;;;;;;;10.31;83.92;96752.13;5062212;28;20148;-66
2023/11/13 03:39:00;;;;;;;0.40;0.40;;;;;;;10.43;83.93;96790.66;5063667;28;20706;-66
2023/11/13 03:41:27;;;;;;;0.50;0.50;;;;;;;10.20;84.93;96786.38;5064220;28;20064;-66
2023/11/13 03:43:54;;;;;;;0.40;0.40;;;;;;;10.13;85.64;96786.28;5062027;28;20045;-66
2023/11/13 03:46:21;;;;;;;0.50;0.50;;;;;;;9.94;87.31;96784.38;5063170;28;20131;-67
2023/11/13 03:48:48;;;;;;;0.50;0.50;;;;;;;9.82;87.01;96787.34;5063782;28;20048;-66
2023/11/13 03:51:15;;;;;;;0.40;0.40;;;;;;;9.90;87.06;96789.06;5066375;28;20474;-66
2023/11/13 03:53:45;;;;;;;0.47;0.47;;;;;;;9.67;88.32;96771.72;5066932;28;20052;-66
2023/11/13 03:56:12;;;;;;;0.40;0.40;;;;;;;9.75;88.94;96794.75;5066417;28;20173;-66
2023/11/13 03:58:39;;;;;;;0.40;0.40;;;;;;;9.86;88.39;96795.72;5066470;28;20054;-67
2023/11/13 04:01:08;;;;;;;0.40;0.40;;;;;;;9.56;88.96;96784.59;5065089;28;20083;-66
2023/11/13 04:03:35;;;;;;;0.40;0.40;;;;;;;9.57;89.27;96797.22;5066704;28;20595;-66
2023/11/13 04:06:02;;;;;;;0.40;0.40;;;;;;;9.23;90.30;96745.72;5066387;28;20099;-66
2023/11/13 04:08:29;;;;;;;0.40;0.40;;;;;;;8.86;89.75;96683.88;5066440;28;20048;-66
2023/11/13 04:10:56;;;;;;;0.50;0.50;;;;;;;9.42;90.45;96809.19;5065146;28;20049;-66
2023/11/13 04:13:24;;;;;;;0.50;0.50;;;;;;;9.43;91.11;96810.81;5065738;28;20067;-65
2023/11/13 04:15:51;;;;;;;0.40;0.40;;;;;;;9.33;91.29;96800.34;5066719;28;20129;-66
2023/11/13 04:18:20;;;;;;;0.40;0.40;;;;;;;9.41;91.01;96806.81;5066501;28;20163;-67
2023/11/13 04:20:47;;;;;;;0.43;0.43;;;;;;;9.08;91.86;96830.31;5081426;28;20135;-66
2023/11/13 04:23:13;;;;;;;0.40;0.40;;;;;;;8.63;94.87;96834.91;5065247;28;20052;-66
2023/11/13 04:25:45;;;;;;;0.40;0.40;;;;;;;8.35;99.30;96828.75;5065996;28;20059;-66
2023/11/13 04:28:15;;;;;;;0.40;0.40;;;;;;;8.63;97.07;96824.66;5066260;28;20360;-66
2023/11/13 04:30:42;;;;;;;0.40;0.40;;;;;;;8.55;96.20;96824.88;5064653;28;20059;-66
2023/11/13 04:33:09;;;;;;;0.40;0.40;;;;;;;8.40;96.86;96820.22;5066711;28;20547;-66
2023/11/13 04:35:36;;;;;;;0.40;0.40;;;;;;;8.39;96.21;96799.31;5066091;28;20091;-66
2023/11/13 04:38:03;;;;;;;0.40;0.40;;;;;;;8.45;96.79;96828.22;5066054;28;20612;-67
2023/11/13 04:40:29;;;;;;;0.40;0.40;;;;;;;8.17;96.75;96783.41;5080874;28;20503;-67
2023/11/13 04:42:58;;;;;;;0.40;0.40;;;;;;;8.49;95.67;96829.88;5064401;28;20071;-66
2023/11/13 04:45:25;;;;;;;0.40;0.40;;;;;;;8.38;96.17;96828.03;5064376;28;20526;-67
2023/11/13 04:47:52;;;;;;;0.40;0.40;;;;;;;8.01;96.45;96785.41;5066002;28;20044;-65
2023/11/13 04:50:19;;;;;;;0.40;0.40;;;;;;;8.30;96.70;96829.06;5064826;28;20063;-66
2023/11/13 04:52:46;;;;;;;0.40;0.40;;;;;;;8.18;97.35;96840.19;5065268;28;20129;-66
2023/11/13 04:55:13;;;;;;;0.40;0.40;;;;;;;8.13;98.19;96840.44;5065523;28;20056;-66
2023/11/13 04:57:40;;;;;;;0.40;0.40;;;;;;;8.05;98.21;96853.28;5063742;28;20053;-66
2023/11/13 05:00:10;;;;;;;0.40;0.40;;;;;;;8.05;98.51;96841.44;5063378;28;20071;-66
2023/11/13 05:02:38;;;;;;;0.40;0.40;;;;;;;8.10;96.14;96843.94;5064566;28;20051;-66
2023/11/13 05:05:07;;;;;;;0.40;0.40;;;;;;;8.14;94.80;96855.88;5065493;28;20537;-66
2023/11/13 05:07:36;;;;;;;0.40;0.40;;;;;;;7.92;94.24;96817.91;5065655;28;20128;-67
2023/11/13 05:10:05;;;;;;;0.40;0.40;;;;;;;7.98;94.84;96863.38;5065373;28;20067;-67
2023/11/13 05:12:32;;;;;;;0.40;0.40;;;;;;;7.79;96.96;96871.56;5063992;28;20490;-66
2023/11/13 05:14:59;;;;;;;0.40;0.40;;;;;;;7.70;98.36;96875.28;5065377;28;20045;-66
2023/11/13 05:17:27;;;;;;;0.40;0.40;;;;;;;7.77;98.22;96884.91;5065312;28;20151;-66
2023/11/13 05:19:54;;;;;;;0.30;0.30;;;;;;;7.48;97.57;96844.78;5064967;28;20125;-68
2023/11/13 05:22:21;;;;;;;0.30;0.30;;;;;;;7.82;97.45;96888.19;5065503;28;20070;-67
2023/11/13 05:24:48;;;;;;;0.40;0.40;;;;;;;7.76;97.25;96889.63;5064992;28;20044;-66
2023/11/13 05:27:16;;;;;;;0.40;0.40;;;;;;;7.68;98.29;96894.13;5065466;28;20040;-66
2023/11/13 05:29:43;;;;;;;0.40;0.40;;;;;;;7.71;98.93;96900.91;5064802;28;20082;-66
2023/11/13 05:32:09;;;;;;;0.40;0.40;;;;;;;7.79;97.42;96899.13;5063601;28;20135;-66
2023/11/13 05:34:36;;;;;;;0.40;0.40;;;;;;;7.47;97.05;96857.78;5064502;28;20127;-67
2023/11/13 05:37:03;;;;;;;0.40;0.40;;;;;;;7.28;95.30;96829.31;5063920;28;20519;-67
2023/11/13 05:39:31;;;;;;;0.40;0.40;;;;;;;7.54;94.69;96871.72;5064093;28;20055;-67
2023/11/13 05:41:58;;;;;;;0.40;0.40;;;;;;;7.78;94.45;96908.56;5063833;28;20045;-68
2023/11/13 05:44:25;;;;;;;0.40;0.40;;;;;;;7.93;94.25;96932.56;5062364;28;20734;-69
2023/11/13 05:46:52;;;;;;;0.30;0.30;;;;;;;7.90;94.47;96949.84;5063842;28;20084;-69
2023/11/13 05:49:19;;;;;;;0.40;0.40;;;;;;;7.92;95.08;96942.78;5063870;28;20057;-68
2023/11/13 05:51:46;;;;;;;0.40;0.40;;;;;;;7.32;95.36;96864.06;5064035;28;20681;-69
2023/11/13 05:54:13;;;;;;;0.40;0.40;;;;;;;8.07;95.70;96949.47;5054873;28;20105;-62
2023/11/13 05:56:39;;;;;;;0.40;0.40;;;;;;;7.96;94.56;96937.38;5063066;28;20049;-64
2023/11/13 05:59:07;;;;;;;0.40;0.40;;;;;;;8.10;93.93;96954.28;5064731;28;20060;-63
2023/11/13 06:01:34;;;;;;;0.30;0.30;;;;;;;8.02;94.80;96946.97;5062927;28;20060;-63
2023/11/13 06:04:01;;;;;;;0.30;0.30;;;;;;;7.94;95.24;96950.72;5064255;28;20052;-63
2023/11/13 06:06:28;;;;;;;0.40;0.40;;;;;;;7.12;96.39;96788.00;5063783;28;20157;-64
2023/11/13 06:08:55;;;;;;;0.40;0.40;;;;;;;8.31;96.87;96957.59;5051396;28;20053;-64
2023/11/13 06:11:22;;;;;;;0.40;0.40;;;;;;;7.95;95.54;96848.31;5043092;28;20053;-64
2023/11/13 06:13:49;;;;;;;0.40;0.40;;;;;;;8.79;95.88;96954.38;5043835;28;20053;-63
2023/11/13 06:16:16;;;;;;;0.40;0.40;;;;;;;8.80;95.74;96925.59;5044153;28;20470;-63
2023/11/13 06:18:56;;;;;;;0.40;0.40;;;;;;;8.60;93.41;96879.81;5040136;28;20054;-63
2023/11/13 06:21:23;;;;;;;0.40;0.40;;;;;;;9.20;91.59;96953.69;5044024;28;20458;-66
2023/11/13 06:23:50;;;;;;;0.40;0.40;;;;;;;9.08;88.70;96928.97;5043846;28;20045;-63
2023/11/13 06:26:17;;;;;;;0.40;0.40;;;;;;;9.19;87.90;96927.22;5042687;28;20060;-63
2023/11/13 06:28:44;;;;;;;0.50;0.50;;;;;;;9.36;87.32;96951.66;5044033;28;20053;-64
2023/11/13 06:31:10;;;;;;;0.40;0.40;;;;;;;9.38;86.97;96951.28;5044171;28;20531;-63
2023/11/13 06:33:38;;;;;;;0.50;0.50;;;;;;;9.53;86.17;96956.72;5043834;28;20053;-63
2023/11/13 06:36:09;;;;;;;0.50;0.50;;;;;;;9.72;85.27;96962.22;5058892;28;20605;-63
2023/11/13 06:38:37;;;;;;;0.40;0.40;;;;;;;9.97;85.99;96955.19;5044182;28;20136;-63
2023/11/13 06:41:04;;;;;;;0.40;0.40;;;;;;;9.58;84.45;96873.47;5044093;28;20065;-64
2023/11/13 06:43:32;;;;;;;0.50;0.50;;;;;;;10.32;82.94;96953.03;5043865;28;20573;-66
2023/11/13 06:46:00;;;;;;;0.43;0.43;;;;;;;10.25;82.04;96905.88;5042210;28;20435;-64
2023/11/13 06:48:27;;;;;;;0.50;0.50;;;;;;;10.61;80.38;96940.44;5043898;28;20139;-63
2023/11/13 06:50:54;;;;;;;0.40;0.40;;;;;;;10.95;79.96;96960.75;5041771;28;20584;-64
2023/11/13 06:53:21;;;;;;;0.43;0.43;;;;;;;11.08;79.64;96951.81;5080674;28;20151;-63
2023/11/13 06:55:48;;;;;;;0.50;0.50;;;;;;;11.42;77.67;96966.50;5082325;28;20056;-66
2023/11/13 06:58:15;;;;;;;0.50;0.50;;;;;;;11.72;77.57;96967.31;5084130;28;20044;-61
2023/11/13 07:00:42;;;;;;;0.50;0.50;;;;;;;11.79;73.91;96961.84;5075450;28;20150;-63
2023/11/13 07:03:10;;;;;;;0.50;0.50;;;;;;;11.92;73.83;96960.38;5079694;28;20047;-74
2023/11/13 07:05:37;;;;;;;0.60;0.60;;;;;;;11.24;74.22;96813.00;5080293;28;20399;-64
2023/11/13 07:08:04;;;;;;;0.50;0.50;;;;;;;12.32;73.56;97029.81;5080100;28;20048;-68
2023/11/13 07:10:34;;;;;;;0.50;0.50;;;;;;;12.44;72.99;96973.97;5080477;28;20067;-61
2023/11/13 07:13:01;;;;;;;0.50;0.50;;;;;;;12.49;73.13;96978.38;5081983;28;20056;-71
2023/11/13 07:15:29;;;;;;;0.50;0.50;;;;;;;12.38;71.80;96933.84;5079290;28;20048;-62
2023/11/13 07:17:57;;;;;;;0.50;0.50;;;;;;;10.60;72.23;96657.16;5082124;28;20047;-69
2023/11/13 07:20:24;;;;;;;0.50;0.50;;;;;;;12.65;72.72;96988.03;5077738;28;20075;-70
2023/11/13 07:22:52;;;;;;;0.60;0.60;;;;;;;12.60;72.05;96968.94;5083181;28;20065;-59
2023/11/13 07:25:19;;;;;;;0.60;0.60;;;;;;;12.59;71.59;96950.69;5086385;28;20121;-62
2023/11/13 07:27:47;;;;;;;0.60;0.60;;;;;;;12.72;72.40;96960.31;5086060;28;20052;-60
2023/11/13 07:30:13;;;;;;;0.60;0.60;;;;;;;12.64;72.07;96928.09;5086217;28;20044;-64
2023/11/13 07:32:41;;;;;;;0.50;0.50;;;;;;;12.81;71.98;96940.50;5083437;28;20048;-61
2023/11/13 07:35:08;;;;;;;0.50;0.50;;;;;;;13.17;71.83;96957.03;5082690;28;20507;-70
2023/11/13 07:37:35;;;;;;;0.50;0.50;;;;;;;13.27;69.18;96953.53;5086689;28;20748;-68
2023/11/13 07:40:02;;;;;;;0.60;0.60;;;;;;;13.51;66.57;96952.81;5084036;28;20044;-64
2023/11/13 07:42:29;;;;;;;0.60;0.60;;;;;;;13.86;66.08;96940.22;5084707;28;20055;-71
2023/11/13 07:44:58;;;;;;;0.70;0.70;;;;;;;13.66;63.02;96853.47;5084883;28;20048;-62
2023/11/13 07:47:27;;;;;;;0.60;0.60;;;;;;;13.88;62.66;96877.38;5082524;28;20075;-69
2023/11/13 07:49:56;;;;;;;0.70;0.70;;;;;;;14.24;62.00;96889.34;5086137;28;20054;-58
2023/11/13 07:52:28;;;;;;;0.65;0.65;;;;;;;14.73;60.74;96915.22;5084487;28;20071;-65
2023/11/13 07:54:56;;;;;;;0.60;0.60;;;;;;;15.10;58.17;96937.88;5085733;28;20130;-67
2023/11/13 07:57:23;;;;;;;0.70;0.70;;;;;;;15.40;58.49;96933.81;5085141;28;20052;-60
2023/11/13 07:59:50;;;;;;;0.77;0.77;;;;;;;15.11;58.38;96871.72;5086315;28;20509;-66
2023/11/13 08:02:19;;;;;;;0.60;0.60;;;;;;;14.68;56.39;96803.31;5085243;28;20158;-62
2023/11/13 08:04:46;;;;;;;0.60;0.60;;;;;;;14.28;56.91;96935.56;5083362;28;20571;-64
2023/11/13 08:07:13;;;;;;;0.60;0.60;;;;;;;13.32;59.67;96886.41;5085584;28;20048;-66
2023/11/13 08:09:51;;;;;;;0.68;0.68;;;;;;;14.11;59.20;96930.72;5085310;28;20055;-61
2023/11/13 08:12:18;;;;;;;0.70;0.70;;;;;;;13.90;58.72;96818.50;5085517;28;20044;-70
2023/11/13 08:14:46;;;;;;;0.60;0.60;;;;;;;14.71;57.33;96880.59;5083852;28;20101;-67
2023/11/13 08:17:13;;;;;;;0.63;0.63;;;;;;;15.34;56.20;96908.31;5084201;28;20040;-65
2023/11/13 08:19:41;;;;;;;0.70;0.70;;;;;;;15.10;54.44;96896.03;5085798;28;20052;-64
2023/11/13 08:22:08;;;;;;;0.60;0.60;;;;;;;14.23;55.24;96776.31;5085896;28;20136;-69
2023/11/13 08:24:35;;;;;;;0.60;0.60;;;;;;;14.39;57.12;96874.25;5081190;28;20509;-62
2023/11/13 08:27:03;;;;;;;0.60;0.60;;;;;;;14.48;56.55;96853.13;5085708;28;20080;-64
2023/11/13 08:29:32;;;;;;;0.60;0.60;;;;;;;14.80;57.05;96911.63;5085031;28;20070;-64
2023/11/13 08:32:00;;;;;;;0.63;0.63;;;;;;;14.97;56.46;96896.84;5084589;28;20455;-59
2023/11/13 08:34:27;;;;;;;0.60;0.60;;;;;;;13.64;56.31;96750.09;5083874;28;20464;-62
2023/11/13 08:36:54;;;;;;;0.60;0.60;;;;;;;14.83;57.32;96880.16;5082778;28;20059;-60
2023/11/13 08:39:22;;;;;;;0.70;0.70;;;;;;;15.21;56.46;96882.03;5082913;28;20048;-67
2023/11/13 08:41:49;;;;;;;0.70;0.70;;;;;;;14.27;53.95;96682.41;5085142;28;20052;-68
2023/11/13 08:44:17;;;;;;;0.70;0.70;;;;;;;14.97;53.44;96765.75;5083706;28;20046;-69
2023/11/13 08:46:44;;;;;;;0.80;0.80;;;;;;;15.90;52.25;96891.28;5082474;28;20130;-71
2023/11/13 08:49:14;;;;;;;0.70;0.70;;;;;;;15.89;52.21;96895.28;5098627;28;20052;-69
2023/11/13 08:51:41;;;;;;;0.70;0.70;;;;;;;15.77;51.75;96876.22;5081907;28;20462;-62
2023/11/13 08:54:09;;;;;;;0.60;0.60;;;;;;;15.80;51.63;96886.56;5080371;28;20040;-76
2023/11/13 08:56:36;;;;;;;0.70;0.70;;;;;;;15.87;51.74;96903.28;5082566;28;20055;-60
2023/11/13 08:59:03;;;;;;;0.60;0.60;;;;;;;16.13;51.54;96905.53;5083660;28;20051;-67
2023/11/13 09:01:30;;;;;;;0.70;0.70;;;;;;;16.42;51.44;96906.09;5074850;28;20087;-67
2023/11/13 09:03:59;;;;;;;0.60;0.60;;;;;;;16.26;50.17;96886.25;5082448;28;20051;-61
2023/11/13 09:06:27;;;;;;;0.70;0.70;;;;;;;16.07;50.67;96826.13;5085710;28;20136;-64
2023/11/13 09:08:54;;;;;;;0.70;0.70;;;;;;;16.53;50.29;96871.25;5084263;28;20048;-60
2023/11/13 09:11:22;;;;;;;0.68;0.68;;;;;;;16.61;49.78;96914.75;5083841;28;20147;-60
2023/11/13 09:13:49;;;;;;;0.70;0.70;;;;;;;16.63;49.25;96905.94;5083967;28;20046;-61
2023/11/13 09:16:19;;;;;;;0.68;0.68;;;;;;;16.63;50.70;96899.56;5082034;28;20052;-62
2023/11/13 09:18:50;;;;;;;0.80;0.80;;;;;;;16.37;50.87;96887.78;5082575;28;21292;-67
2023/11/13 09:21:20;;;;;;;0.60;0.60;;;;;;;16.35;50.33;96890.19;5083347;28;20453;-61
2023/11/13 09:23:47;;;;;;;0.70;0.70;;;;;;;16.09;50.61;96871.19;5084440;28;20145;-60
2023/11/13 09:26:15;;;;;;;0.70;0.70;;;;;;;16.06;50.30;96860.84;5084938;28;20067;-65
2023/11/13 09:28:42;;;;;;;0.70;0.70;;;;;;;16.31;49.78;96832.72;5084498;28;20471;-65
2023/11/13 09:31:11;;;;;;;0.80;0.80;;;;;;;17.08;49.78;96870.31;5085083;28;20152;-67
2023/11/13 09:33:39;;;;;;;0.70;0.70;;;;;;;17.27;48.43;96847.31;5082808;28;20557;-68
2023/11/13 09:36:08;;;;;;;0.70;0.70;;;;;;;17.77;47.57;96856.66;5084804;28;20055;-66
2023/11/13 09:38:35;;;;;;;0.70;0.70;;;;;;;17.98;47.45;96845.16;5084600;28;20056;-65
2023/11/13 09:41:03;;;;;;;0.70;0.70;;;;;;;18.21;47.27;96847.97;5084874;28;20062;-61
2023/11/13 09:43:35;;;;;;;0.70;0.70;;;;;;;17.58;47.33;96754.47;5083093;28;20071;-60
2023/11/13 09:46:06;;;;;;;0.80;0.80;;;;;;;18.27;46.35;96834.28;5063811;28;20060;-64
2023/11/13 09:48:44;;;;;;;0.70;0.70;;;;;;;18.23;46.15;96837.13;5062150;28;20132;-64
2023/11/13 09:51:17;;;;;;;0.70;0.70;;;;;;;18.25;46.89;96801.06;5062057;28;20044;-65
2023/11/13 09:53:57;;;;;;;0.70;0.70;;;;;;;18.17;45.97;96824.81;5047873;28;20054;-60
2023/11/13 09:56:27;;;;;;;0.73;0.73;;;;;;;18.29;45.47;96821.41;5064767;28;20049;-60
2023/11/13 09:58:57;;;;;;;0.70;0.70;;;;;;;17.80;45.84;96806.19;5063504;28;20124;-60
2023/11/13 10:01:24;;;;;;;0.80;0.80;;;;;;;17.31;46.18;96668.88;5063819;28;20056;-60
2023/11/13 10:03:51;;;;;;;0.70;0.70;;;;;;;18.24;45.07;96813.47;5062467;28;20098;-66
2023/11/13 10:06:19;;;;;;;0.80;0.80;;;;;;;17.43;46.22;96817.50;5064453;28;20495;-65
2023/11/13 10:08:49;;;;;;;0.70;0.70;;;;;;;16.20;48.31;96781.69;5063804;28;20137;-65
2023/11/13 10:11:17;;;;;;;0.75;0.75;;;;;;;16.50;48.68;96824.56;5063167;28;20102;-65
2023/11/13 10:13:44;;;;;;;0.60;0.60;;;;;;;16.29;48.54;96780.00;5062497;28;20533;-60
2023/11/13 10:16:18;;;;;;;0.70;0.70;;;;;;;16.22;49.25;96833.16;5063292;28;20785;-60
2023/11/13 10:18:47;;;;;;;0.80;0.80;;;;;;;15.81;48.65;96719.75;5061338;28;20041;-60
2023/11/13 10:21:33;;;;;;;0.60;0.60;;;;;;;16.92;48.92;96814.13;5063190;28;20076;-60
2023/11/13 10:24:15;;;;;;;0.70;0.70;;;;;;;16.90;48.82;96819.38;5061802;28;20040;-67
2023/11/13 10:26:56;;;;;;;0.75;0.75;;;;;;;16.59;48.60;96799.72;5061892;28;20135;-60
2023/11/13 10:29:30;;;;;;;0.77;0.77;;;;;;;16.66;49.67;96823.22;5061667;28;20040;-66
2023/11/13 10:31:58;;;;;;;0.70;0.70;;;;;;;16.63;48.85;96787.69;5061912;28;20056;-61
2023/11/13 10:34:44;;;;;;;0.70;0.70;;;;;;;16.93;48.54;96830.50;5061959;28;20446;-66
2023/11/13 10:37:18;;;;;;;0.60;0.60;;;;;;;16.67;48.85;96794.84;5061487;28;20533;-65
2023/11/13 10:39:44;;;;;;;;;;;;;;;16.90;48.58;96822.94;5061212;28;20052;-60
2023/11/13 10:42:22;;;;;;;0.70;0.70;;;;;;;16.93;48.76;96815.75;5063886;28;19924;-66
2023/11/13 10:44:58;;;;;;;0.63;0.63;;;;;;;17.04;48.62;96802.41;5063612;28;20044;-66
2023/11/13 10:47:30;;;;;;;0.70;0.70;;;;;;;17.58;47.46;96838.53;5063805;28;20045;-60
2023/11/13 10:49:59;;;;;;;0.77;0.77;;;;;;;17.63;46.98;96800.84;5062954;28;20147;-60
2023/11/13 10:52:28;;;;;;;0.70;0.70;;;;;;;18.41;46.54;96834.06;5063372;28;20099;-64
2023/11/13 10:55:02;;;;;;;0.80;0.80;;;;;;;18.73;45.82;96828.72;5061621;28;20068;-60
2023/11/13 10:57:29;;;;;;;;;;;;;;;18.72;45.25;96822.28;5062533;28;20052;-62
2023/11/13 10:59:56;;;;;;;0.70;0.70;;;;;;;17.95;45.28;96798.34;5060954;28;19924;-59
2023/11/13 11:02:35;;;;;;;0.70;0.70;;;;;;;17.02;46.46;96688.09;5062336;28;20139;-60
2023/11/13 11:05:09;;;;;;;0.60;0.60;;;;;;;18.11;45.93;96804.09;5063072;28;20523;-65
2023/11/13 11:07:39;;;;;;;0.77;0.77;;;;;;;18.39;45.69;96814.88;5063061;28;20137;-61
2023/11/13 11:10:07;;;;;;;0.70;0.70;;;;;;;18.69;45.40;96799.91;5061459;28;20181;-65
2023/11/13 11:12:44;;;;;;;0.70;0.70;;;;;;;18.63;44.97;96805.22;5063285;28;20433;-60
2023/11/13 11:15:22;;;;;;;0.70;0.70;;;;;;;18.37;44.92;96806.06;5059682;28;20048;-60
2023/11/13 11:18:01;;;;;;;0.80;0.80;;;;;;;17.91;46.16;96764.78;5043495;28;20111;-61
2023/11/13 11:20:43;;;;;;;0.60;0.60;;;;;;;17.08;47.14;96758.38;5056963;28;20477;-67
2023/11/13 11:23:12;;;;;;;0.70;0.70;;;;;;;16.37;49.04;96736.00;5062150;28;20500;-61
2023/11/13 11:25:48;;;;;;;0.70;0.70;;;;;;;16.50;49.00;96779.81;5058667;28;20056;-67
2023/11/13 11:28:52;;;;;;;0.70;0.70;;;;;;;16.84;49.03;96810.63;5061639;28;20210;-68
2023/11/13 11:31:38;;;;;;;0.70;0.70;;;;;;;17.42;48.43;96806.72;5051939;28;20048;-68
2023/11/13 11:34:06;;;;;;;0.80;0.80;;;;;;;17.34;47.60;96777.22;5061957;28;20117;-62
2023/11/13 11:36:36;;;;;;;0.70;0.70;;;;;;;17.00;48.27;96700.91;5062134;28;20177;-61
2023/11/13 11:39:18;;;;;;;0.80;0.80;;;;;;;18.00;47.47;96814.69;5060955;28;20052;-62
2023/11/13 11:41:51;;;;;;;0.70;0.70;;;;;;;18.28;46.08;96802.22;5063148;28;20049;-64